createdAt,value
2023-01-30T00:01:00.461Z,94.70
2023-01-30T00:03:27.212Z,94.23
2023-01-30T00:05:53.941Z,93.61
2023-01-30T00:08:20.496Z,94.23
2023-01-30T00:10:47.435Z,95.21
2023-01-30T00:13:14.761Z,94.24
2023-01-30T00:15:42.142Z,95.34
2023-01-30T00:18:09.068Z,95.41
2023-01-30T00:20:36.451Z,94.65
2023-01-30T00:23:03.041Z,94.84
2023-01-30T00:25:30.136Z,96.06
2023-01-30T00:27:59.336Z,96.05
2023-01-30T00:30:25.765Z,96.87
2023-01-30T00:32:59.269Z,97.10
2023-01-30T00:35:28.691Z,97.35
2023-01-30T00:37:56.878Z,97.96
2023-01-30T00:40:24.241Z,98.13
2023-01-30T00:46:00.731Z,98.36
2023-01-30T00:48:27.626Z,98.92
2023-01-30T00:50:54.041Z,98.17
2023-01-30T00:53:20.491Z,97.94
2023-01-30T00:55:46.947Z,98.82
2023-01-30T00:58:13.731Z,97.94
2023-01-30T01:00:40.473Z,97.83
2023-01-30T01:03:07.197Z,98.42
2023-01-30T01:05:33.631Z,98.33
2023-01-30T01:08:00.141Z,97.92
2023-01-30T01:10:26.791Z,98.80
2023-01-30T01:12:53.310Z,98.22
2023-01-30T01:15:21.285Z,97.62
2023-01-30T01:17:47.824Z,98.17
2023-01-30T01:20:14.963Z,97.83
2023-01-30T01:22:41.697Z,98.61
2023-01-30T01:25:09.933Z,97.78
2023-01-30T01:27:37.057Z,98.41
2023-01-30T01:30:04.613Z,97.99
2023-01-30T01:32:31.093Z,97.37
2023-01-30T01:34:57.560Z,98.13
2023-01-30T01:37:23.998Z,98.20
2023-01-30T01:40:08.913Z,98.18
2023-01-30T01:42:37.375Z,98.04
2023-01-30T01:45:03.950Z,97.63
2023-01-30T01:47:31.657Z,98.01
2023-01-30T01:49:58.198Z,97.54
2023-01-30T01:52:24.825Z,97.62
2023-01-30T01:55:03.167Z,96.78
2023-01-30T01:57:43.220Z,98.06
2023-01-30T02:00:14.019Z,97.78
2023-01-30T02:02:42.404Z,98.15
2023-01-30T02:05:11.201Z,97.52
2023-01-30T02:07:46.305Z,97.66
2023-01-30T02:10:21.090Z,98.37
2023-01-30T02:12:48.158Z,98.20
2023-01-30T02:15:14.574Z,97.71
2023-01-30T02:17:41.118Z,97.10
2023-01-30T02:20:14.627Z,97.15
2023-01-30T02:22:46.039Z,96.85
2023-01-30T02:25:18.786Z,96.82
2023-01-30T02:28:09.600Z,96.99
2023-01-30T02:31:00.971Z,97.34
2023-01-30T02:33:33.241Z,96.58
2023-01-30T02:36:10.425Z,96.27
2023-01-30T02:38:42.387Z,97.11
2023-01-30T02:41:29.108Z,96.36
2023-01-30T02:44:05.193Z,97.31
2023-01-30T02:46:44.085Z,97.74
2023-01-30T02:49:18.930Z,97.19
2023-01-30T02:51:46.351Z,98.24
2023-01-30T02:54:13.211Z,98.42
2023-01-30T02:56:49.821Z,98.46
2023-01-30T02:59:20.591Z,99.06
2023-01-30T03:02:16.453Z,99.63
2023-01-30T03:04:52.403Z,100.00
2023-01-30T03:07:37.566Z,100.00
2023-01-30T03:10:09.522Z,100.00
2023-01-30T03:13:12.912Z,100.00
2023-01-30T03:15:47.765Z,100.00
2023-01-30T03:18:14.549Z,100.00
2023-01-30T03:20:41.382Z,100.00
2023-01-30T03:23:08.227Z,100.00
2023-01-30T03:25:35.855Z,100.00
2023-01-30T03:28:03.847Z,100.00
2023-01-30T03:30:30.292Z,100.00
2023-01-30T03:32:56.753Z,100.00
2023-01-30T03:35:23.283Z,100.00
2023-01-30T03:37:50.098Z,100.00
2023-01-30T03:40:17.469Z,100.00
2023-01-30T03:42:43.916Z,100.00
2023-01-30T03:45:11.437Z,100.00
2023-01-30T03:47:38.051Z,100.00
2023-01-30T03:50:04.868Z,100.00
2023-01-30T03:52:31.277Z,100.00
2023-01-30T03:54:57.757Z,100.00
2023-01-30T03:57:24.165Z,100.00
2023-01-30T03:59:53.315Z,100.00
2023-01-30T04:02:23.040Z,100.00
2023-01-30T04:04:49.762Z,100.00
2023-01-30T04:07:16.200Z,100.00
2023-01-30T04:09:42.666Z,100.00
2023-01-30T04:12:09.210Z,100.00
2023-01-30T04:14:35.595Z,100.00
2023-01-30T04:17:02.055Z,100.00
2023-01-30T04:19:28.478Z,100.00
2023-01-30T04:21:54.880Z,100.00
2023-01-30T04:24:21.342Z,100.00
2023-01-30T04:26:47.761Z,100.00
2023-01-30T04:29:14.257Z,100.00
2023-01-30T04:31:40.847Z,100.00
2023-01-30T04:34:07.339Z,100.00
2023-01-30T04:36:33.740Z,100.00
2023-01-30T04:39:00.202Z,100.00
2023-01-30T04:41:26.619Z,100.00
2023-01-30T04:43:53.174Z,100.00
2023-01-30T04:46:19.579Z,100.00
2023-01-30T04:48:45.986Z,100.00
2023-01-30T04:51:12.473Z,100.00
2023-01-30T04:53:38.920Z,100.00
2023-01-30T04:56:05.873Z,100.00
2023-01-30T04:58:32.245Z,100.00
2023-01-30T05:01:22.752Z,100.00
2023-01-30T05:03:51.067Z,100.00
2023-01-30T05:06:17.530Z,100.00
2023-01-30T05:08:46.763Z,100.00
2023-01-30T05:11:13.357Z,100.00
2023-01-30T05:13:39.807Z,100.00
2023-01-30T05:16:06.346Z,100.00
2023-01-30T05:18:33.965Z,100.00
2023-01-30T05:21:17.573Z,100.00
2023-01-30T05:23:44.109Z,100.00
2023-01-30T05:26:12.221Z,100.00
2023-01-30T05:28:38.677Z,100.00
2023-01-30T05:31:07.850Z,100.00
2023-01-30T05:33:34.576Z,100.00
2023-01-30T05:36:01.444Z,100.00
2023-01-30T05:38:28.573Z,100.00
2023-01-30T05:41:03.526Z,100.00
2023-01-30T05:43:30.274Z,100.00
2023-01-30T05:45:58.321Z,100.00
2023-01-30T05:48:25.139Z,100.00
2023-01-30T05:50:56.125Z,100.00
2023-01-30T05:53:24.516Z,100.00
2023-01-30T05:56:03.611Z,100.00
2023-01-30T05:58:30.123Z,100.00
2023-01-30T06:01:07.305Z,100.00
2023-01-30T06:03:33.792Z,100.00
2023-01-30T06:06:01.835Z,100.00
2023-01-30T06:08:28.467Z,100.00
2023-01-30T06:10:54.904Z,100.00
2023-01-30T06:13:21.345Z,100.00
2023-01-30T06:15:47.842Z,100.00
2023-01-30T06:18:14.324Z,100.00
2023-01-30T06:20:40.718Z,100.00
2023-01-30T06:23:07.115Z,100.00
2023-01-30T06:25:33.785Z,100.00
2023-01-30T06:28:00.341Z,100.00
2023-01-30T06:30:26.828Z,100.00
2023-01-30T06:32:53.420Z,100.00
2023-01-30T06:35:20.302Z,100.00
2023-01-30T06:37:47.221Z,100.00
2023-01-30T06:40:13.901Z,100.00
2023-01-30T06:42:45.108Z,100.00
2023-01-30T06:45:12.409Z,100.00
2023-01-30T06:47:49.751Z,100.00
2023-01-30T06:50:17.892Z,100.00
2023-01-30T06:52:49.235Z,100.00
2023-01-30T06:55:17.967Z,100.00
2023-01-30T06:57:45.228Z,100.00
2023-01-30T07:00:18.507Z,100.00
2023-01-30T07:02:45.701Z,100.00
2023-01-30T07:05:12.433Z,100.00
2023-01-30T07:07:39.348Z,100.00
2023-01-30T07:10:08.965Z,100.00
2023-01-30T07:12:36.279Z,100.00
2023-01-30T07:15:03.905Z,100.00
2023-01-30T07:17:30.344Z,100.00
2023-01-30T07:19:56.750Z,100.00
2023-01-30T07:22:23.336Z,100.00
2023-01-30T07:24:49.836Z,100.00
2023-01-30T07:27:16.429Z,100.00
2023-01-30T07:29:42.844Z,100.00
2023-01-30T07:32:14.782Z,100.00
2023-01-30T07:34:41.768Z,100.00
2023-01-30T07:37:08.323Z,100.00
2023-01-30T07:39:35.309Z,100.00
2023-01-30T07:42:02.050Z,100.00
2023-01-30T07:44:28.486Z,100.00
2023-01-30T07:46:54.928Z,100.00
2023-01-30T07:49:21.394Z,100.00
2023-01-30T07:51:47.832Z,100.00
2023-01-30T07:54:14.413Z,100.00
2023-01-30T07:56:40.836Z,100.00
2023-01-30T07:59:07.263Z,100.00
2023-01-30T08:01:33.767Z,100.00
2023-01-30T08:04:00.197Z,100.00
2023-01-30T08:06:26.670Z,100.00
2023-01-30T08:08:53.125Z,100.00
2023-01-30T08:11:19.549Z,100.00
2023-01-30T08:13:47.223Z,100.00
2023-01-30T08:16:13.638Z,100.00
2023-01-30T08:18:40.240Z,100.00
2023-01-30T08:21:07.431Z,100.00
2023-01-30T08:23:34.403Z,100.00
2023-01-30T08:26:02.740Z,100.00
2023-01-30T08:28:29.549Z,100.00
2023-01-30T08:30:56.669Z,100.00
2023-01-30T08:33:23.855Z,100.00
2023-01-30T08:35:50.862Z,100.00
2023-01-30T08:38:17.305Z,100.00
2023-01-30T08:40:43.834Z,100.00
2023-01-30T08:43:10.626Z,100.00
2023-01-30T08:45:37.222Z,100.00
2023-01-30T08:48:06.135Z,100.00
2023-01-30T08:50:33.591Z,100.00
2023-01-30T08:53:05.607Z,100.00
2023-01-30T08:55:32.217Z,100.00
2023-01-30T08:57:58.706Z,100.00
2023-01-30T09:00:25.234Z,100.00
2023-01-30T09:02:55.756Z,100.00
2023-01-30T09:05:22.304Z,100.00
2023-01-30T09:07:48.721Z,100.00
2023-01-30T09:10:15.458Z,100.00
2023-01-30T09:12:42.031Z,100.00
2023-01-30T09:15:09.248Z,100.00
2023-01-30T09:17:35.753Z,100.00
2023-01-30T09:20:02.287Z,100.00
2023-01-30T09:22:28.661Z,100.00
2023-01-30T09:24:55.158Z,100.00
2023-01-30T09:27:21.584Z,100.00
2023-01-30T09:29:48.225Z,100.00
2023-01-30T09:32:14.694Z,100.00
2023-01-30T09:34:41.151Z,100.00
2023-01-30T09:37:08.188Z,100.00
2023-01-30T09:39:34.587Z,100.00
2023-01-30T09:42:23.659Z,100.00
2023-01-30T09:45:08.302Z,100.00
2023-01-30T09:47:42.618Z,100.00
2023-01-30T09:50:17.553Z,100.00
2023-01-30T09:53:03.404Z,100.00
2023-01-30T09:55:31.092Z,100.00
2023-01-30T09:57:59.374Z,100.00
2023-01-30T10:00:31.194Z,100.00
2023-01-30T10:02:59.934Z,100.00
2023-01-30T10:05:34.858Z,100.00
2023-01-30T10:08:14.279Z,100.00
2023-01-30T10:11:08.928Z,100.00
2023-01-30T10:13:48.233Z,100.00
2023-01-30T10:16:19.973Z,100.00
2023-01-30T10:19:05.099Z,100.00
2023-01-30T10:21:40.471Z,100.00
2023-01-30T10:24:23.476Z,100.00
2023-01-30T10:26:50.126Z,100.00
2023-01-30T10:29:26.315Z,100.00
2023-01-30T10:32:02.725Z,100.00
2023-01-30T10:34:32.061Z,100.00
2023-01-30T10:37:13.480Z,100.00
2023-01-30T10:40:03.058Z,100.00
2023-01-30T10:42:31.436Z,100.00
2023-01-30T10:45:09.015Z,100.00
2023-01-30T10:47:50.751Z,100.00
2023-01-30T10:50:24.671Z,100.00
2023-01-30T10:53:02.450Z,100.00
2023-01-30T10:55:39.930Z,100.00
2023-01-30T10:58:17.622Z,100.00
2023-01-30T11:00:58.492Z,100.00
2023-01-30T11:03:30.946Z,100.00
2023-01-30T11:06:10.711Z,100.00
2023-01-30T11:08:37.205Z,100.00
2023-01-30T11:11:29.543Z,100.00
2023-01-30T11:14:06.950Z,100.00
2023-01-30T11:16:43.394Z,100.00
2023-01-30T11:19:20.312Z,100.00
2023-01-30T11:22:01.767Z,100.00
2023-01-30T11:24:41.309Z,100.00
2023-01-30T11:27:19.046Z,100.00
2023-01-30T11:29:46.360Z,100.00
2023-01-30T11:32:16.212Z,100.00
2023-01-30T11:34:43.732Z,100.00
2023-01-30T11:37:18.907Z,100.00
2023-01-30T11:39:51.450Z,100.00
2023-01-30T11:42:20.196Z,100.00
2023-01-30T11:44:46.725Z,100.00
2023-01-30T11:47:22.320Z,100.00
2023-01-30T11:50:14.955Z,100.00
2023-01-30T11:52:42.815Z,100.00
2023-01-30T11:55:15.494Z,100.00
2023-01-30T11:57:45.035Z,100.00
2023-01-30T12:00:23.834Z,100.00
2023-01-30T12:02:52.757Z,100.00
2023-01-30T12:05:28.275Z,100.00
2023-01-30T12:08:12.287Z,100.00
2023-01-30T12:10:43.609Z,100.00
2023-01-30T12:13:38.355Z,100.00
2023-01-30T12:16:10.526Z,100.00
2023-01-30T12:18:39.417Z,100.00
2023-01-30T12:21:15.589Z,100.00
2023-01-30T12:24:11.139Z,100.00
2023-01-30T12:26:44.592Z,100.00
2023-01-30T12:29:29.144Z,100.00
2023-01-30T12:32:19.478Z,100.00
2023-01-30T12:34:47.877Z,100.00
2023-01-30T12:37:36.126Z,100.00
2023-01-30T12:40:11.966Z,100.00
2023-01-30T12:43:00.128Z,100.00
2023-01-30T12:45:28.523Z,100.00
2023-01-30T12:48:19.988Z,100.00
2023-01-30T12:51:13.492Z,100.00
2023-01-30T12:53:55.098Z,100.00
2023-01-30T12:56:32.430Z,100.00
2023-01-30T12:59:27.918Z,100.00
2023-01-30T13:02:09.420Z,100.00
2023-01-30T13:04:56.845Z,100.00
2023-01-30T13:07:50.650Z,100.00
2023-01-30T13:10:23.638Z,100.00
2023-01-30T13:13:14.203Z,100.00
2023-01-30T13:16:06.722Z,100.00
2023-01-30T13:18:38.678Z,100.00
2023-01-30T13:21:15.202Z,100.00
2023-01-30T13:24:03.416Z,100.00
2023-01-30T13:26:34.816Z,100.00
2023-01-30T13:29:12.944Z,100.00
2023-01-30T13:31:47.517Z,100.00
2023-01-30T13:34:22.721Z,100.00
2023-01-30T13:37:14.408Z,100.00
2023-01-30T13:39:49.088Z,100.00
2023-01-30T13:42:33.781Z,100.00
2023-01-30T13:45:00.507Z,100.00
2023-01-30T13:47:39.619Z,100.00
2023-01-30T13:50:08.686Z,100.00
2023-01-30T13:52:46.636Z,100.00
2023-01-30T13:55:21.458Z,100.00
2023-01-30T13:57:55.205Z,100.00
2023-01-30T14:00:31.961Z,100.00
2023-01-30T14:03:07.808Z,100.00
2023-01-30T14:05:52.863Z,100.00
2023-01-30T14:08:21.657Z,100.00
2023-01-30T14:10:49.098Z,100.00
2023-01-30T14:13:19.199Z,100.00
2023-01-30T14:15:59.600Z,100.00
2023-01-30T14:18:35.871Z,100.00
2023-01-30T14:21:16.927Z,100.00
2023-01-30T14:23:56.140Z,100.00
2023-01-30T14:26:47.626Z,100.00
2023-01-30T14:29:38.779Z,100.00
2023-01-30T14:32:14.568Z,100.00
2023-01-30T14:35:14.062Z,100.00
2023-01-30T14:37:43.122Z,100.00
2023-01-30T14:40:29.597Z,100.00
2023-01-30T14:43:14.888Z,100.00
2023-01-30T14:46:08.571Z,100.00
2023-01-30T14:48:41.686Z,100.00
2023-01-30T14:51:24.313Z,100.00
2023-01-30T14:54:10.092Z,100.00
2023-01-30T14:56:45.695Z,100.00
2023-01-30T14:59:31.996Z,100.00
2023-01-30T15:02:13.778Z,100.00
2023-01-30T15:04:40.247Z,100.00
2023-01-30T15:07:31.457Z,100.00
2023-01-30T15:10:04.444Z,100.00
2023-01-30T15:12:37.086Z,100.00
2023-01-30T15:15:13.235Z,100.00
2023-01-30T15:18:07.968Z,100.00
2023-01-30T15:20:56.633Z,100.00
2023-01-30T15:23:41.268Z,100.00
2023-01-30T15:26:25.122Z,100.00
2023-01-30T15:28:58.953Z,100.00
2023-01-30T15:31:26.367Z,100.00
2023-01-30T15:33:56.664Z,100.00
2023-01-30T15:36:33.278Z,100.00
2023-01-30T15:39:02.058Z,100.00
2023-01-30T15:41:38.360Z,100.00
2023-01-30T15:44:20.654Z,100.00
2023-01-30T15:46:49.101Z,100.00
2023-01-30T15:49:22.290Z,100.00
2023-01-30T15:51:48.783Z,100.00
2023-01-30T15:54:17.988Z,100.00
2023-01-30T15:56:48.686Z,100.00
2023-01-30T15:59:32.697Z,100.00
2023-01-30T16:02:04.565Z,100.00
2023-01-30T16:04:31.231Z,100.00
2023-01-30T16:06:57.723Z,100.00
2023-01-30T16:09:25.736Z,100.00
2023-01-30T16:11:52.445Z,100.00
2023-01-30T16:14:20.690Z,100.00
2023-01-30T16:16:58.724Z,100.00
2023-01-30T16:19:30.897Z,100.00
2023-01-30T16:22:02.482Z,100.00
2023-01-30T16:24:32.089Z,100.00
2023-01-30T16:27:02.696Z,100.00
2023-01-30T16:29:31.586Z,100.00
2023-01-30T16:31:58.470Z,100.00
2023-01-30T16:34:31.702Z,100.00
2023-01-30T16:37:03.776Z,100.00
2023-01-30T16:39:35.471Z,100.00
2023-01-30T16:42:05.111Z,100.00
2023-01-30T16:44:32.012Z,100.00
2023-01-30T16:47:11.156Z,100.00
2023-01-30T16:49:37.471Z,100.00
2023-01-30T16:52:11.867Z,100.00
2023-01-30T16:54:39.582Z,100.00
2023-01-30T16:57:06.039Z,100.00
2023-01-30T16:59:35.855Z,100.00
2023-01-30T17:02:04.899Z,100.00
2023-01-30T17:04:33.556Z,100.00
2023-01-30T17:07:03.978Z,100.00
2023-01-30T17:09:33.333Z,100.00
2023-01-30T17:11:59.813Z,100.00
2023-01-30T17:14:30.525Z,100.00
2023-01-30T17:17:04.089Z,100.00
2023-01-30T17:19:30.623Z,100.00
2023-01-30T17:21:58.718Z,100.00
2023-01-30T17:24:25.886Z,100.00
2023-01-30T17:27:03.031Z,100.00
2023-01-30T17:29:47.347Z,100.00
2023-01-30T17:32:15.242Z,100.00
2023-01-30T17:34:42.153Z,100.00
2023-01-30T17:37:23.086Z,100.00
2023-01-30T17:39:49.567Z,100.00
2023-01-30T17:42:21.859Z,100.00
2023-01-30T17:44:48.595Z,100.00
2023-01-30T17:47:15.003Z,100.00
2023-01-30T17:49:41.508Z,100.00
2023-01-30T17:52:13.784Z,100.00
2023-01-30T17:54:40.516Z,100.00
2023-01-30T17:57:09.669Z,100.00
2023-01-30T17:59:36.140Z,100.00
2023-01-30T18:02:02.769Z,100.00
2023-01-30T18:04:29.236Z,100.00
2023-01-30T18:07:04.569Z,100.00
2023-01-30T18:09:31.276Z,100.00
2023-01-30T18:11:57.801Z,100.00
2023-01-30T18:14:24.227Z,100.00
2023-01-30T18:16:50.818Z,100.00
2023-01-30T18:19:23.949Z,100.00
2023-01-30T18:21:50.488Z,100.00
2023-01-30T18:24:16.887Z,100.00
2023-01-30T18:26:43.370Z,100.00
2023-01-30T18:29:10.290Z,100.00
2023-01-30T18:31:37.853Z,100.00
2023-01-30T18:34:04.853Z,100.00
2023-01-30T18:36:33.711Z,100.00
2023-01-30T18:39:00.228Z,100.00
2023-01-30T18:41:30.048Z,100.00
2023-01-30T18:44:01.861Z,100.00
2023-01-30T18:46:29.024Z,100.00
2023-01-30T18:48:56.233Z,100.00
2023-01-30T18:51:25.788Z,100.00
2023-01-30T18:53:53.016Z,100.00
2023-01-30T18:56:22.013Z,100.00
2023-01-30T18:58:49.682Z,100.00
2023-01-30T19:01:19.083Z,100.00
2023-01-30T19:03:45.545Z,100.00
2023-01-30T19:06:14.125Z,100.00
2023-01-30T19:08:41.328Z,100.00
2023-01-30T19:11:28.446Z,100.00
2023-01-30T19:13:55.973Z,100.00
2023-01-30T19:16:25.109Z,100.00
2023-01-30T19:18:53.181Z,100.00
2023-01-30T19:21:19.893Z,100.00
2023-01-30T19:23:46.785Z,100.00
2023-01-30T19:26:13.397Z,100.00
2023-01-30T19:28:41.582Z,100.00
2023-01-30T19:31:09.341Z,100.00
2023-01-30T19:33:36.168Z,100.00
2023-01-30T19:36:09.560Z,100.00
2023-01-30T19:38:36.258Z,100.00
2023-01-30T19:41:02.717Z,100.00
2023-01-30T19:43:29.148Z,100.00
2023-01-30T19:46:00.401Z,100.00
2023-01-30T19:48:27.053Z,100.00
2023-01-30T19:50:53.653Z,100.00
2023-01-30T19:53:20.136Z,100.00
2023-01-30T19:55:52.834Z,100.00
2023-01-30T19:58:19.566Z,100.00
2023-01-30T20:00:46.370Z,100.00
2023-01-30T20:03:13.110Z,100.00
2023-01-30T20:05:39.886Z,100.00
2023-01-30T20:08:06.310Z,100.00
2023-01-30T20:10:32.691Z,100.00
2023-01-30T20:12:59.110Z,100.00
2023-01-30T20:15:25.600Z,100.00
2023-01-30T20:17:52.023Z,100.00
2023-01-30T20:20:18.764Z,100.00
2023-01-30T20:22:45.380Z,100.00
2023-01-30T20:25:11.821Z,100.00
2023-01-30T20:27:38.965Z,100.00
2023-01-30T20:30:06.073Z,100.00
2023-01-30T20:32:34.395Z,99.61
2023-01-30T20:35:00.918Z,100.00
2023-01-30T20:37:28.035Z,99.56
2023-01-30T20:39:55.258Z,99.67
2023-01-30T20:42:21.681Z,100.00
2023-01-30T20:44:48.138Z,99.45
2023-01-30T20:47:14.565Z,99.35
2023-01-30T20:49:41.069Z,100.00
2023-01-30T20:52:07.476Z,99.79
2023-01-30T20:54:34.314Z,99.09
2023-01-30T20:57:02.558Z,100.00
2023-01-30T20:59:29.119Z,99.18
2023-01-30T21:01:55.669Z,99.14
2023-01-30T21:04:24.150Z,99.79
2023-01-30T21:06:50.701Z,99.74
2023-01-30T21:09:19.831Z,99.74
2023-01-30T21:11:46.793Z,100.00
2023-01-30T21:14:13.733Z,100.00
2023-01-30T21:16:40.538Z,100.00
2023-01-30T21:19:09.967Z,100.00
2023-01-30T21:21:50.267Z,100.00
2023-01-30T21:24:19.286Z,100.00
2023-01-30T21:26:51.788Z,100.00
2023-01-30T21:29:21.020Z,100.00
2023-01-30T21:31:47.683Z,100.00
2023-01-30T21:34:14.202Z,100.00
2023-01-30T21:36:41.037Z,100.00
2023-01-30T21:39:26.244Z,99.97
2023-01-30T21:41:58.759Z,100.00
2023-01-30T21:44:31.329Z,99.75
2023-01-30T21:46:58.190Z,100.00
2023-01-30T21:49:25.296Z,100.00
2023-01-30T21:51:52.744Z,100.00
2023-01-30T21:54:19.441Z,100.00
2023-01-30T21:56:46.091Z,100.00
2023-01-30T21:59:13.125Z,100.00
2023-01-30T22:01:40.180Z,100.00
2023-01-30T22:04:09.053Z,100.00
2023-01-30T22:06:37.703Z,100.00
2023-01-30T22:09:05.885Z,100.00
2023-01-30T22:11:32.844Z,100.00
2023-01-30T22:13:59.257Z,100.00
2023-01-30T22:16:27.765Z,100.00
2023-01-30T22:18:56.707Z,100.00
2023-01-30T22:21:25.073Z,100.00
2023-01-30T22:23:52.968Z,100.00
2023-01-30T22:26:26.165Z,100.00
2023-01-30T22:29:00.788Z,100.00
2023-01-30T22:31:34.277Z,100.00
2023-01-30T22:34:02.411Z,100.00
2023-01-30T22:36:31.047Z,100.00
2023-01-30T22:39:00.447Z,100.00
2023-01-30T22:41:28.444Z,100.00
2023-01-30T22:43:57.037Z,100.00
2023-01-30T22:46:28.496Z,100.00
2023-01-30T22:48:55.063Z,100.00
2023-01-30T22:51:23.850Z,100.00
2023-01-30T22:53:54.913Z,100.00
2023-01-30T22:56:23.477Z,100.00
2023-01-30T22:58:49.978Z,100.00
2023-01-30T23:01:25.228Z,100.00
2023-01-30T23:03:58.911Z,100.00
2023-01-30T23:06:25.867Z,100.00
2023-01-30T23:08:53.842Z,100.00
2023-01-30T23:11:23.863Z,100.00
2023-01-30T23:13:52.010Z,100.00
2023-01-30T23:16:21.431Z,100.00
2023-01-30T23:18:58.702Z,100.00
2023-01-30T23:21:39.099Z,100.00
2023-01-30T23:24:11.982Z,100.00
2023-01-30T23:26:41.105Z,100.00
2023-01-30T23:29:13.085Z,100.00
2023-01-30T23:31:40.662Z,100.00
2023-01-30T23:34:10.882Z,100.00
2023-01-30T23:36:37.684Z,100.00
2023-01-30T23:39:05.287Z,100.00
2023-01-30T23:41:34.027Z,100.00
2023-01-30T23:44:01.359Z,100.00
2023-01-30T23:46:36.483Z,100.00
2023-01-30T23:49:13.769Z,100.00
2023-01-30T23:51:41.769Z,100.00
2023-01-30T23:54:08.808Z,100.00
2023-01-30T23:56:37.828Z,100.00
2023-01-30T23:59:06.471Z,100.00
